sensor_id;sensor_type;location;lat;lon;timestamp;P1;durP1;ratioP1;P2;durP2;ratioP2
815;SDS011;25928;51.062;13.752;2023-05-07T00:00:33;16.57;;;11.97;;
815;SDS011;25928;51.062;13.752;2023-05-07T00:02:59;20.20;;;15.23;;
815;SDS011;25928;51.062;13.752;2023-05-07T00:05:25;17.70;;;14.17;;
815;SDS011;25928;51.062;13.752;2023-05-07T00:07:51;20.73;;;14.27;;
815;SDS011;25928;51.062;13.752;2023-05-07T00:10:17;19.50;;;15.33;;
815;SDS011;25928;51.062;13.752;2023-05-07T00:12:43;18.20;;;15.33;;
815;SDS011;25928;51.062;13.752;2023-05-07T00:15:09;17.20;;;13.57;;
815;SDS011;25928;51.062;13.752;2023-05-07T00:17:35;20.60;;;15.17;;
815;SDS011;25928;51.062;13.752;2023-05-07T00:20:01;20.97;;;14.40;;
815;SDS011;25928;51.062;13.752;2023-05-07T00:22:28;17.77;;;14.63;;
815;SDS011;25928;51.062;13.752;2023-05-07T00:24:55;18.03;;;15.20;;
815;SDS011;25928;51.062;13.752;2023-05-07T00:27:21;22.20;;;16.60;;
815;SDS011;25928;51.062;13.752;2023-05-07T00:29:47;21.27;;;16.70;;
815;SDS011;25928;51.062;13.752;2023-05-07T00:32:13;21.33;;;16.63;;
815;SDS011;25928;51.062;13.752;2023-05-07T00:34:39;23.43;;;18.47;;
815;SDS011;25928;51.062;13.752;2023-05-07T00:37:04;22.30;;;17.63;;
815;SDS011;25928;51.062;13.752;2023-05-07T00:39:32;20.87;;;17.47;;
815;SDS011;25928;51.062;13.752;2023-05-07T00:41:58;24.23;;;17.97;;
815;SDS011;25928;51.062;13.752;2023-05-07T00:44:25;20.07;;;17.00;;
815;SDS011;25928;51.062;13.752;2023-05-07T00:46:51;23.87;;;17.70;;
815;SDS011;25928;51.062;13.752;2023-05-07T00:49:18;21.13;;;17.13;;
815;SDS011;25928;51.062;13.752;2023-05-07T00:51:44;21.63;;;16.90;;
815;SDS011;25928;51.062;13.752;2023-05-07T00:54:10;21.23;;;16.07;;
815;SDS011;25928;51.062;13.752;2023-05-07T00:56:36;20.57;;;15.97;;
815;SDS011;25928;51.062;13.752;2023-05-07T00:59:02;24.70;;;17.27;;
815;SDS011;25928;51.062;13.752;2023-05-07T01:01:28;18.77;;;16.50;;
815;SDS011;25928;51.062;13.752;2023-05-07T01:03:54;20.37;;;16.17;;
815;SDS011;25928;51.062;13.752;2023-05-07T01:06:20;24.03;;;16.00;;
815;SDS011;25928;51.062;13.752;2023-05-07T01:08:48;19.37;;;15.17;;
815;SDS011;25928;51.062;13.752;2023-05-07T01:11:15;20.20;;;15.67;;
815;SDS011;25928;51.062;13.752;2023-05-07T01:13:44;18.10;;;14.07;;
815;SDS011;25928;51.062;13.752;2023-05-07T01:16:10;18.70;;;15.37;;
815;SDS011;25928;51.062;13.752;2023-05-07T01:18:36;19.43;;;16.47;;
815;SDS011;25928;51.062;13.752;2023-05-07T01:21:02;16.80;;;13.40;;
815;SDS011;25928;51.062;13.752;2023-05-07T01:23:29;19.67;;;14.50;;
815;SDS011;25928;51.062;13.752;2023-05-07T01:25:55;17.37;;;15.47;;
815;SDS011;25928;51.062;13.752;2023-05-07T01:28:21;21.23;;;14.47;;
815;SDS011;25928;51.062;13.752;2023-05-07T01:30:49;16.40;;;14.20;;
815;SDS011;25928;51.062;13.752;2023-05-07T01:33:18;16.53;;;14.40;;
815;SDS011;25928;51.062;13.752;2023-05-07T01:35:47;16.17;;;13.70;;
815;SDS011;25928;51.062;13.752;2023-05-07T01:38:15;15.50;;;12.70;;
815;SDS011;25928;51.062;13.752;2023-05-07T01:40:42;18.60;;;15.20;;
815;SDS011;25928;51.062;13.752;2023-05-07T01:43:08;16.23;;;13.43;;
815;SDS011;25928;51.062;13.752;2023-05-07T01:45:35;16.43;;;14.30;;
815;SDS011;25928;51.062;13.752;2023-05-07T01:48:01;17.93;;;13.53;;
815;SDS011;25928;51.062;13.752;2023-05-07T01:50:27;18.00;;;16.10;;
815;SDS011;25928;51.062;13.752;2023-05-07T01:52:54;16.63;;;14.53;;
815;SDS011;25928;51.062;13.752;2023-05-07T01:55:20;18.70;;;14.70;;
815;SDS011;25928;51.062;13.752;2023-05-07T01:57:46;16.47;;;14.50;;
815;SDS011;25928;51.062;13.752;2023-05-07T02:00:12;17.30;;;14.10;;
815;SDS011;25928;51.062;13.752;2023-05-07T02:02:38;17.00;;;14.90;;
815;SDS011;25928;51.062;13.752;2023-05-07T02:05:04;18.03;;;15.47;;
815;SDS011;25928;51.062;13.752;2023-05-07T02:07:30;16.30;;;13.80;;
815;SDS011;25928;51.062;13.752;2023-05-07T02:09:55;18.03;;;14.00;;
815;SDS011;25928;51.062;13.752;2023-05-07T02:12:21;17.97;;;15.60;;
815;SDS011;25928;51.062;13.752;2023-05-07T02:14:48;17.07;;;14.33;;
815;SDS011;25928;51.062;13.752;2023-05-07T02:17:13;15.80;;;13.87;;
815;SDS011;25928;51.062;13.752;2023-05-07T02:19:39;16.17;;;13.73;;
815;SDS011;25928;51.062;13.752;2023-05-07T02:22:05;16.33;;;13.77;;
815;SDS011;25928;51.062;13.752;2023-05-07T02:24:30;18.40;;;14.63;;
815;SDS011;25928;51.062;13.752;2023-05-07T02:26:56;16.70;;;14.03;;
815;SDS011;25928;51.062;13.752;2023-05-07T02:29:22;18.87;;;14.10;;
815;SDS011;25928;51.062;13.752;2023-05-07T02:31:47;17.33;;;14.10;;
815;SDS011;25928;51.062;13.752;2023-05-07T02:34:17;16.17;;;14.43;;
815;SDS011;25928;51.062;13.752;2023-05-07T02:36:43;17.40;;;14.97;;
815;SDS011;25928;51.062;13.752;2023-05-07T02:39:10;16.10;;;14.30;;
815;SDS011;25928;51.062;13.752;2023-05-07T02:41:36;21.83;;;13.97;;
815;SDS011;25928;51.062;13.752;2023-05-07T02:44:02;17.90;;;13.27;;
815;SDS011;25928;51.062;13.752;2023-05-07T02:46:28;13.90;;;12.30;;
815;SDS011;25928;51.062;13.752;2023-05-07T02:48:53;16.30;;;13.63;;
815;SDS011;25928;51.062;13.752;2023-05-07T02:51:20;14.60;;;12.50;;
815;SDS011;25928;51.062;13.752;2023-05-07T02:53:46;12.87;;;11.40;;
815;SDS011;25928;51.062;13.752;2023-05-07T02:56:12;12.23;;;10.90;;
815;SDS011;25928;51.062;13.752;2023-05-07T02:58:38;13.13;;;11.70;;
815;SDS011;25928;51.062;13.752;2023-05-07T03:01:09;12.13;;;10.80;;
815;SDS011;25928;51.062;13.752;2023-05-07T03:03:35;14.53;;;12.50;;
815;SDS011;25928;51.062;13.752;2023-05-07T03:06:01;11.60;;;10.03;;
815;SDS011;25928;51.062;13.752;2023-05-07T03:08:27;13.00;;;10.20;;
815;SDS011;25928;51.062;13.752;2023-05-07T03:10:52;11.53;;;10.20;;
815;SDS011;25928;51.062;13.752;2023-05-07T03:13:18;10.07;;;8.83;;
815;SDS011;25928;51.062;13.752;2023-05-07T03:15:44;10.17;;;9.17;;
815;SDS011;25928;51.062;13.752;2023-05-07T03:18:10;12.83;;;9.63;;
815;SDS011;25928;51.062;13.752;2023-05-07T03:20:36;11.83;;;9.20;;
815;SDS011;25928;51.062;13.752;2023-05-07T03:23:01;11.60;;;9.63;;
815;SDS011;25928;51.062;13.752;2023-05-07T03:25:27;10.07;;;9.07;;
815;SDS011;25928;51.062;13.752;2023-05-07T03:27:55;11.60;;;9.53;;
815;SDS011;25928;51.062;13.752;2023-05-07T03:30:21;12.70;;;10.53;;
815;SDS011;25928;51.062;13.752;2023-05-07T03:32:46;13.43;;;10.93;;
815;SDS011;25928;51.062;13.752;2023-05-07T03:35:12;12.30;;;11.00;;
815;SDS011;25928;51.062;13.752;2023-05-07T03:37:38;14.13;;;10.97;;
815;SDS011;25928;51.062;13.752;2023-05-07T03:40:04;14.10;;;11.27;;
815;SDS011;25928;51.062;13.752;2023-05-07T03:42:31;14.10;;;11.90;;
815;SDS011;25928;51.062;13.752;2023-05-07T03:44:57;16.67;;;13.30;;
815;SDS011;25928;51.062;13.752;2023-05-07T03:47:22;13.77;;;12.30;;
815;SDS011;25928;51.062;13.752;2023-05-07T03:49:48;12.87;;;11.20;;
815;SDS011;25928;51.062;13.752;2023-05-07T03:52:15;15.40;;;11.37;;
815;SDS011;25928;51.062;13.752;2023-05-07T03:54:41;16.23;;;12.20;;
815;SDS011;25928;51.062;13.752;2023-05-07T03:57:06;15.33;;;11.47;;
815;SDS011;25928;51.062;13.752;2023-05-07T03:59:32;14.80;;;11.33;;
815;SDS011;25928;51.062;13.752;2023-05-07T04:01:57;14.47;;;12.00;;
815;SDS011;25928;51.062;13.752;2023-05-07T04:04:23;16.00;;;12.03;;
815;SDS011;25928;51.062;13.752;2023-05-07T04:06:49;15.20;;;12.00;;
815;SDS011;25928;51.062;13.752;2023-05-07T04:09:14;14.50;;;11.73;;
815;SDS011;25928;51.062;13.752;2023-05-07T04:11:40;15.83;;;12.80;;
815;SDS011;25928;51.062;13.752;2023-05-07T04:14:06;14.30;;;12.00;;
815;SDS011;25928;51.062;13.752;2023-05-07T04:16:31;14.20;;;10.80;;
815;SDS011;25928;51.062;13.752;2023-05-07T04:18:57;13.80;;;11.57;;
815;SDS011;25928;51.062;13.752;2023-05-07T04:21:22;14.67;;;10.73;;
815;SDS011;25928;51.062;13.752;2023-05-07T04:23:48;14.10;;;11.50;;
815;SDS011;25928;51.062;13.752;2023-05-07T04:26:14;13.50;;;10.70;;
815;SDS011;25928;51.062;13.752;2023-05-07T04:28:40;15.00;;;10.93;;
815;SDS011;25928;51.062;13.752;2023-05-07T04:31:07;14.80;;;10.60;;
815;SDS011;25928;51.062;13.752;2023-05-07T04:33:33;15.10;;;12.00;;
815;SDS011;25928;51.062;13.752;2023-05-07T04:36:02;13.73;;;11.10;;
815;SDS011;25928;51.062;13.752;2023-05-07T04:38:29;15.30;;;11.50;;
815;SDS011;25928;51.062;13.752;2023-05-07T04:40:55;16.17;;;11.77;;
815;SDS011;25928;51.062;13.752;2023-05-07T04:43:22;12.73;;;10.87;;
815;SDS011;25928;51.062;13.752;2023-05-07T04:45:47;16.40;;;12.40;;
815;SDS011;25928;51.062;13.752;2023-05-07T04:48:15;15.67;;;11.87;;
815;SDS011;25928;51.062;13.752;2023-05-07T04:50:41;13.10;;;11.13;;
815;SDS011;25928;51.062;13.752;2023-05-07T04:53:06;12.40;;;9.97;;
815;SDS011;25928;51.062;13.752;2023-05-07T04:55:32;12.97;;;10.47;;
815;SDS011;25928;51.062;13.752;2023-05-07T04:57:58;19.43;;;11.33;;
815;SDS011;25928;51.062;13.752;2023-05-07T05:00:25;13.67;;;11.37;;
815;SDS011;25928;51.062;13.752;2023-05-07T05:02:51;12.23;;;10.90;;
815;SDS011;25928;51.062;13.752;2023-05-07T05:05:16;13.13;;;10.57;;
815;SDS011;25928;51.062;13.752;2023-05-07T05:07:42;13.53;;;10.07;;
815;SDS011;25928;51.062;13.752;2023-05-07T05:10:08;10.33;;;9.23;;
815;SDS011;25928;51.062;13.752;2023-05-07T05:12:33;12.63;;;10.40;;
815;SDS011;25928;51.062;13.752;2023-05-07T05:14:59;12.17;;;9.93;;
815;SDS011;25928;51.062;13.752;2023-05-07T05:17:24;11.33;;;10.13;;
815;SDS011;25928;51.062;13.752;2023-05-07T05:19:50;11.70;;;9.90;;
815;SDS011;25928;51.062;13.752;2023-05-07T05:22:16;11.43;;;9.73;;
815;SDS011;25928;51.062;13.752;2023-05-07T05:24:41;11.83;;;9.93;;
815;SDS011;25928;51.062;13.752;2023-05-07T05:27:07;14.00;;;10.20;;
815;SDS011;25928;51.062;13.752;2023-05-07T05:29:33;14.40;;;10.70;;
815;SDS011;25928;51.062;13.752;2023-05-07T05:31:58;11.90;;;10.20;;
815;SDS011;25928;51.062;13.752;2023-05-07T05:34:24;13.57;;;11.10;;
815;SDS011;25928;51.062;13.752;2023-05-07T05:36:49;14.20;;;11.63;;
815;SDS011;25928;51.062;13.752;2023-05-07T05:39:15;14.70;;;11.40;;
815;SDS011;25928;51.062;13.752;2023-05-07T05:41:41;15.90;;;11.97;;
815;SDS011;25928;51.062;13.752;2023-05-07T05:44:06;18.23;;;12.30;;
815;SDS011;25928;51.062;13.752;2023-05-07T05:46:32;15.60;;;12.23;;
815;SDS011;25928;51.062;13.752;2023-05-07T05:48:57;13.67;;;11.97;;
815;SDS011;25928;51.062;13.752;2023-05-07T05:51:23;14.37;;;11.70;;
815;SDS011;25928;51.062;13.752;2023-05-07T05:53:49;14.77;;;11.60;;
815;SDS011;25928;51.062;13.752;2023-05-07T05:56:15;15.67;;;11.40;;
815;SDS011;25928;51.062;13.752;2023-05-07T05:58:41;13.80;;;10.63;;
815;SDS011;25928;51.062;13.752;2023-05-07T06:01:07;12.90;;;10.37;;
815;SDS011;25928;51.062;13.752;2023-05-07T06:03:32;10.43;;;8.90;;
815;SDS011;25928;51.062;13.752;2023-05-07T06:05:58;12.53;;;10.10;;
815;SDS011;25928;51.062;13.752;2023-05-07T06:08:25;11.07;;;8.30;;
815;SDS011;25928;51.062;13.752;2023-05-07T06:10:51;9.67;;;8.67;;
815;SDS011;25928;51.062;13.752;2023-05-07T06:13:16;9.90;;;8.30;;
815;SDS011;25928;51.062;13.752;2023-05-07T06:15:42;11.90;;;8.87;;
815;SDS011;25928;51.062;13.752;2023-05-07T06:18:08;10.47;;;8.70;;
815;SDS011;25928;51.062;13.752;2023-05-07T06:20:33;9.33;;;8.33;;
815;SDS011;25928;51.062;13.752;2023-05-07T06:22:59;10.27;;;8.90;;
815;SDS011;25928;51.062;13.752;2023-05-07T06:25:24;14.77;;;9.13;;
815;SDS011;25928;51.062;13.752;2023-05-07T06:27:50;10.60;;;8.90;;
815;SDS011;25928;51.062;13.752;2023-05-07T06:30:16;9.17;;;8.20;;
815;SDS011;25928;51.062;13.752;2023-05-07T06:32:41;9.30;;;8.10;;
815;SDS011;25928;51.062;13.752;2023-05-07T06:35:07;8.37;;;7.47;;
815;SDS011;25928;51.062;13.752;2023-05-07T06:37:33;11.40;;;8.23;;
815;SDS011;25928;51.062;13.752;2023-05-07T06:39:58;8.67;;;7.77;;
815;SDS011;25928;51.062;13.752;2023-05-07T06:42:24;10.67;;;8.33;;
815;SDS011;25928;51.062;13.752;2023-05-07T06:44:50;9.70;;;8.60;;
815;SDS011;25928;51.062;13.752;2023-05-07T06:47:15;9.60;;;8.00;;
815;SDS011;25928;51.062;13.752;2023-05-07T06:49:41;11.60;;;8.47;;
815;SDS011;25928;51.062;13.752;2023-05-07T06:52:07;9.17;;;7.23;;
815;SDS011;25928;51.062;13.752;2023-05-07T06:54:32;8.73;;;7.57;;
815;SDS011;25928;51.062;13.752;2023-05-07T06:56:58;8.80;;;7.90;;
815;SDS011;25928;51.062;13.752;2023-05-07T06:59:23;12.67;;;8.77;;
815;SDS011;25928;51.062;13.752;2023-05-07T07:01:49;11.00;;;9.00;;
815;SDS011;25928;51.062;13.752;2023-05-07T07:04:15;10.00;;;8.73;;
815;SDS011;25928;51.062;13.752;2023-05-07T07:06:42;10.63;;;9.53;;
815;SDS011;25928;51.062;13.752;2023-05-07T07:09:07;10.47;;;9.20;;
815;SDS011;25928;51.062;13.752;2023-05-07T07:11:33;12.40;;;9.30;;
815;SDS011;25928;51.062;13.752;2023-05-07T07:13:59;9.63;;;8.63;;
815;SDS011;25928;51.062;13.752;2023-05-07T07:16:24;9.60;;;8.30;;
815;SDS011;25928;51.062;13.752;2023-05-07T07:18:50;9.27;;;7.07;;
815;SDS011;25928;51.062;13.752;2023-05-07T07:21:16;6.40;;;5.80;;
815;SDS011;25928;51.062;13.752;2023-05-07T07:23:41;7.73;;;6.50;;
815;SDS011;25928;51.062;13.752;2023-05-07T07:26:07;7.93;;;6.30;;
815;SDS011;25928;51.062;13.752;2023-05-07T07:28:33;6.23;;;5.40;;
815;SDS011;25928;51.062;13.752;2023-05-07T07:30:58;6.00;;;5.40;;
815;SDS011;25928;51.062;13.752;2023-05-07T07:33:24;5.67;;;5.17;;
815;SDS011;25928;51.062;13.752;2023-05-07T07:35:49;7.40;;;5.50;;
815;SDS011;25928;51.062;13.752;2023-05-07T07:38:15;10.43;;;7.13;;
815;SDS011;25928;51.062;13.752;2023-05-07T07:40:41;5.83;;;5.30;;
815;SDS011;25928;51.062;13.752;2023-05-07T07:43:06;5.20;;;4.67;;
815;SDS011;25928;51.062;13.752;2023-05-07T07:45:32;5.70;;;5.00;;
815;SDS011;25928;51.062;13.752;2023-05-07T07:47:57;6.07;;;5.47;;
815;SDS011;25928;51.062;13.752;2023-05-07T07:50:23;7.80;;;5.50;;
815;SDS011;25928;51.062;13.752;2023-05-07T07:52:49;6.27;;;4.90;;
815;SDS011;25928;51.062;13.752;2023-05-07T07:55:14;4.73;;;4.30;;
815;SDS011;25928;51.062;13.752;2023-05-07T07:57:46;5.20;;;4.33;;
815;SDS011;25928;51.062;13.752;2023-05-07T08:00:11;5.57;;;4.97;;
815;SDS011;25928;51.062;13.752;2023-05-07T08:02:37;5.83;;;5.20;;
815;SDS011;25928;51.062;13.752;2023-05-07T08:05:03;5.93;;;5.33;;
815;SDS011;25928;51.062;13.752;2023-05-07T08:07:29;5.17;;;4.67;;
815;SDS011;25928;51.062;13.752;2023-05-07T08:09:54;5.40;;;4.90;;
815;SDS011;25928;51.062;13.752;2023-05-07T08:12:20;5.23;;;4.70;;
815;SDS011;25928;51.062;13.752;2023-05-07T08:14:46;4.70;;;4.27;;
815;SDS011;25928;51.062;13.752;2023-05-07T08:17:11;4.87;;;4.47;;
815;SDS011;25928;51.062;13.752;2023-05-07T08:19:38;4.67;;;4.30;;
815;SDS011;25928;51.062;13.752;2023-05-07T08:22:03;5.33;;;4.83;;
815;SDS011;25928;51.062;13.752;2023-05-07T08:24:30;4.70;;;4.23;;
815;SDS011;25928;51.062;13.752;2023-05-07T08:26:56;5.60;;;4.87;;
815;SDS011;25928;51.062;13.752;2023-05-07T08:29:21;4.30;;;4.00;;
815;SDS011;25928;51.062;13.752;2023-05-07T08:31:47;5.30;;;4.80;;
815;SDS011;25928;51.062;13.752;2023-05-07T08:34:13;4.97;;;4.57;;
815;SDS011;25928;51.062;13.752;2023-05-07T08:36:38;5.77;;;5.27;;
815;SDS011;25928;51.062;13.752;2023-05-07T08:39:06;5.97;;;4.70;;
815;SDS011;25928;51.062;13.752;2023-05-07T08:41:32;5.33;;;4.83;;
815;SDS011;25928;51.062;13.752;2023-05-07T08:43:58;5.17;;;4.77;;
815;SDS011;25928;51.062;13.752;2023-05-07T08:46:25;5.20;;;4.80;;
815;SDS011;25928;51.062;13.752;2023-05-07T08:48:57;5.50;;;5.10;;
815;SDS011;25928;51.062;13.752;2023-05-07T08:51:22;6.30;;;5.77;;
815;SDS011;25928;51.062;13.752;2023-05-07T08:53:48;6.10;;;5.07;;
815;SDS011;25928;51.062;13.752;2023-05-07T08:56:15;7.40;;;6.70;;
815;SDS011;25928;51.062;13.752;2023-05-07T08:58:42;6.63;;;6.07;;
815;SDS011;25928;51.062;13.752;2023-05-07T09:01:09;6.93;;;6.27;;
815;SDS011;25928;51.062;13.752;2023-05-07T09:03:37;7.10;;;6.40;;
815;SDS011;25928;51.062;13.752;2023-05-07T09:06:04;7.20;;;6.50;;
815;SDS011;25928;51.062;13.752;2023-05-07T09:08:31;8.00;;;7.20;;
815;SDS011;25928;51.062;13.752;2023-05-07T09:10:58;7.67;;;6.93;;
815;SDS011;25928;51.062;13.752;2023-05-07T09:13:24;7.60;;;6.90;;
815;SDS011;25928;51.062;13.752;2023-05-07T09:15:50;8.00;;;6.63;;
815;SDS011;25928;51.062;13.752;2023-05-07T09:18:15;8.13;;;7.20;;
815;SDS011;25928;51.062;13.752;2023-05-07T09:20:41;8.63;;;6.70;;
815;SDS011;25928;51.062;13.752;2023-05-07T09:23:07;8.63;;;7.83;;
815;SDS011;25928;51.062;13.752;2023-05-07T09:25:34;8.57;;;7.67;;
815;SDS011;25928;51.062;13.752;2023-05-07T09:28:01;8.33;;;6.90;;
815;SDS011;25928;51.062;13.752;2023-05-07T09:30:31;7.80;;;7.10;;
815;SDS011;25928;51.062;13.752;2023-05-07T09:32:58;8.20;;;7.00;;
815;SDS011;25928;51.062;13.752;2023-05-07T09:35:25;8.37;;;7.20;;
815;SDS011;25928;51.062;13.752;2023-05-07T09:37:57;7.13;;;6.43;;
815;SDS011;25928;51.062;13.752;2023-05-07T09:40:26;7.93;;;7.13;;
815;SDS011;25928;51.062;13.752;2023-05-07T09:42:53;8.17;;;7.37;;
815;SDS011;25928;51.062;13.752;2023-05-07T09:45:22;8.10;;;7.40;;
815;SDS011;25928;51.062;13.752;2023-05-07T09:47:50;6.97;;;6.37;;
815;SDS011;25928;51.062;13.752;2023-05-07T09:50:22;7.27;;;6.67;;
815;SDS011;25928;51.062;13.752;2023-05-07T09:52:52;7.30;;;6.60;;
815;SDS011;25928;51.062;13.752;2023-05-07T09:55:20;7.33;;;6.63;;
815;SDS011;25928;51.062;13.752;2023-05-07T09:57:46;7.83;;;7.10;;
815;SDS011;25928;51.062;13.752;2023-05-07T10:00:15;7.10;;;6.50;;
815;SDS011;25928;51.062;13.752;2023-05-07T10:02:44;8.80;;;7.77;;
815;SDS011;25928;51.062;13.752;2023-05-07T10:05:13;9.07;;;8.03;;
815;SDS011;25928;51.062;13.752;2023-05-07T10:07:40;9.20;;;7.70;;
815;SDS011;25928;51.062;13.752;2023-05-07T10:10:06;9.53;;;8.70;;
815;SDS011;25928;51.062;13.752;2023-05-07T10:12:32;8.93;;;8.03;;
815;SDS011;25928;51.062;13.752;2023-05-07T10:15:04;7.40;;;6.70;;
815;SDS011;25928;51.062;13.752;2023-05-07T10:17:35;9.90;;;7.43;;
815;SDS011;25928;51.062;13.752;2023-05-07T10:20:02;7.67;;;6.97;;
815;SDS011;25928;51.062;13.752;2023-05-07T10:22:30;7.60;;;7.00;;
815;SDS011;25928;51.062;13.752;2023-05-07T10:25:09;7.70;;;6.90;;
815;SDS011;25928;51.062;13.752;2023-05-07T10:27:52;8.10;;;7.40;;
815;SDS011;25928;51.062;13.752;2023-05-07T10:33:08;8.80;;;8.00;;
815;SDS011;25928;51.062;13.752;2023-05-07T10:35:43;7.27;;;6.57;;
815;SDS011;25928;51.062;13.752;2023-05-07T10:38:11;8.47;;;7.53;;
815;SDS011;25928;51.062;13.752;2023-05-07T10:40:37;8.23;;;7.43;;
815;SDS011;25928;51.062;13.752;2023-05-07T10:43:03;8.53;;;7.63;;
815;SDS011;25928;51.062;13.752;2023-05-07T10:45:30;7.57;;;6.87;;
815;SDS011;25928;51.062;13.752;2023-05-07T10:48:11;9.07;;;8.17;;
815;SDS011;25928;51.062;13.752;2023-05-07T10:50:38;8.40;;;7.60;;
815;SDS011;25928;51.062;13.752;2023-05-07T10:55:49;12.30;;;9.50;;
815;SDS011;25928;51.062;13.752;2023-05-07T10:58:33;9.80;;;8.80;;
815;SDS011;25928;51.062;13.752;2023-05-07T11:01:01;11.47;;;10.13;;
815;SDS011;25928;51.062;13.752;2023-05-07T11:03:27;8.10;;;7.40;;
815;SDS011;25928;51.062;13.752;2023-05-07T11:06:10;7.60;;;6.97;;
815;SDS011;25928;51.062;13.752;2023-05-07T11:11:18;7.20;;;6.50;;
815;SDS011;25928;51.062;13.752;2023-05-07T11:13:47;6.97;;;6.27;;
815;SDS011;25928;51.062;13.752;2023-05-07T11:16:17;6.33;;;5.83;;
815;SDS011;25928;51.062;13.752;2023-05-07T11:18:53;6.53;;;6.03;;
815;SDS011;25928;51.062;13.752;2023-05-07T11:21:35;6.73;;;6.23;;
815;SDS011;25928;51.062;13.752;2023-05-07T11:24:05;7.53;;;6.83;;
815;SDS011;25928;51.062;13.752;2023-05-07T11:26:45;6.50;;;5.90;;
815;SDS011;25928;51.062;13.752;2023-05-07T11:29:17;6.10;;;5.50;;
815;SDS011;25928;51.062;13.752;2023-05-07T11:31:43;6.40;;;5.80;;
815;SDS011;25928;51.062;13.752;2023-05-07T11:34:12;6.43;;;5.90;;
815;SDS011;25928;51.062;13.752;2023-05-07T11:36:41;6.70;;;6.00;;
815;SDS011;25928;51.062;13.752;2023-05-07T11:39:28;7.10;;;6.50;;
815;SDS011;25928;51.062;13.752;2023-05-07T11:41:56;7.03;;;6.43;;
815;SDS011;25928;51.062;13.752;2023-05-07T11:44:22;7.00;;;6.40;;
815;SDS011;25928;51.062;13.752;2023-05-07T11:46:48;6.83;;;6.23;;
815;SDS011;25928;51.062;13.752;2023-05-07T11:49:14;6.50;;;5.90;;
815;SDS011;25928;51.062;13.752;2023-05-07T11:51:40;6.97;;;6.37;;
815;SDS011;25928;51.062;13.752;2023-05-07T11:54:07;11.93;;;6.57;;
815;SDS011;25928;51.062;13.752;2023-05-07T11:56:34;7.73;;;7.03;;
815;SDS011;25928;51.062;13.752;2023-05-07T11:59:00;7.30;;;6.70;;
815;SDS011;25928;51.062;13.752;2023-05-07T12:01:26;7.20;;;6.60;;
815;SDS011;25928;51.062;13.752;2023-05-07T12:03:51;7.30;;;6.70;;
815;SDS011;25928;51.062;13.752;2023-05-07T12:06:17;7.20;;;6.60;;
815;SDS011;25928;51.062;13.752;2023-05-07T12:08:43;6.57;;;5.97;;
815;SDS011;25928;51.062;13.752;2023-05-07T12:11:13;5.87;;;5.37;;
815;SDS011;25928;51.062;13.752;2023-05-07T12:13:47;7.10;;;6.50;;
815;SDS011;25928;51.062;13.752;2023-05-07T12:16:13;7.40;;;6.73;;
815;SDS011;25928;51.062;13.752;2023-05-07T12:18:39;7.07;;;6.43;;
815;SDS011;25928;51.062;13.752;2023-05-07T12:21:05;7.50;;;6.73;;
815;SDS011;25928;51.062;13.752;2023-05-07T12:23:35;6.70;;;6.13;;
815;SDS011;25928;51.062;13.752;2023-05-07T12:26:02;7.00;;;6.40;;
815;SDS011;25928;51.062;13.752;2023-05-07T12:28:28;6.87;;;6.27;;
815;SDS011;25928;51.062;13.752;2023-05-07T12:30:54;7.30;;;6.60;;
815;SDS011;25928;51.062;13.752;2023-05-07T12:33:24;6.30;;;5.70;;
815;SDS011;25928;51.062;13.752;2023-05-07T12:35:52;8.20;;;7.50;;
815;SDS011;25928;51.062;13.752;2023-05-07T12:38:19;6.37;;;5.80;;
815;SDS011;25928;51.062;13.752;2023-05-07T12:40:45;6.60;;;6.00;;
815;SDS011;25928;51.062;13.752;2023-05-07T12:43:25;6.10;;;5.60;;
815;SDS011;25928;51.062;13.752;2023-05-07T12:45:54;7.03;;;5.87;;
815;SDS011;25928;51.062;13.752;2023-05-07T12:48:21;6.27;;;5.70;;
815;SDS011;25928;51.062;13.752;2023-05-07T12:50:50;6.40;;;5.90;;
815;SDS011;25928;51.062;13.752;2023-05-07T12:53:19;7.23;;;6.53;;
815;SDS011;25928;51.062;13.752;2023-05-07T12:55:47;6.53;;;6.03;;
815;SDS011;25928;51.062;13.752;2023-05-07T12:58:14;6.40;;;5.90;;
815;SDS011;25928;51.062;13.752;2023-05-07T13:00:50;6.63;;;6.13;;
815;SDS011;25928;51.062;13.752;2023-05-07T13:03:24;6.60;;;6.10;;
815;SDS011;25928;51.062;13.752;2023-05-07T13:05:51;6.70;;;6.10;;
815;SDS011;25928;51.062;13.752;2023-05-07T13:08:28;7.60;;;6.90;;
815;SDS011;25928;51.062;13.752;2023-05-07T13:11:13;5.70;;;5.20;;
815;SDS011;25928;51.062;13.752;2023-05-07T13:13:39;6.33;;;5.83;;
815;SDS011;25928;51.062;13.752;2023-05-07T13:16:06;6.50;;;5.90;;
815;SDS011;25928;51.062;13.752;2023-05-07T13:18:33;6.00;;;5.50;;
815;SDS011;25928;51.062;13.752;2023-05-07T13:21:00;5.53;;;5.13;;
815;SDS011;25928;51.062;13.752;2023-05-07T13:23:26;6.23;;;5.63;;
815;SDS011;25928;51.062;13.752;2023-05-07T13:25:52;5.50;;;5.10;;
815;SDS011;25928;51.062;13.752;2023-05-07T13:28:21;6.17;;;5.67;;
815;SDS011;25928;51.062;13.752;2023-05-07T13:30:51;6.13;;;5.60;;
815;SDS011;25928;51.062;13.752;2023-05-07T13:33:17;5.80;;;5.30;;
815;SDS011;25928;51.062;13.752;2023-05-07T13:35:44;5.93;;;5.43;;
815;SDS011;25928;51.062;13.752;2023-05-07T13:38:09;5.97;;;5.47;;
815;SDS011;25928;51.062;13.752;2023-05-07T13:40:35;6.03;;;5.50;;
815;SDS011;25928;51.062;13.752;2023-05-07T13:43:01;5.30;;;4.90;;
815;SDS011;25928;51.062;13.752;2023-05-07T13:45:27;5.60;;;5.20;;
815;SDS011;25928;51.062;13.752;2023-05-07T13:47:54;6.13;;;5.63;;
815;SDS011;25928;51.062;13.752;2023-05-07T13:50:20;5.83;;;5.20;;
815;SDS011;25928;51.062;13.752;2023-05-07T13:52:46;5.47;;;4.97;;
815;SDS011;25928;51.062;13.752;2023-05-07T13:55:18;5.23;;;4.83;;
815;SDS011;25928;51.062;13.752;2023-05-07T13:57:45;5.60;;;5.17;;
815;SDS011;25928;51.062;13.752;2023-05-07T14:00:12;4.80;;;4.40;;
815;SDS011;25928;51.062;13.752;2023-05-07T14:02:39;6.00;;;5.50;;
815;SDS011;25928;51.062;13.752;2023-05-07T14:05:05;6.03;;;5.53;;
815;SDS011;25928;51.062;13.752;2023-05-07T14:07:31;4.90;;;4.50;;
815;SDS011;25928;51.062;13.752;2023-05-07T14:09:57;4.70;;;4.30;;
815;SDS011;25928;51.062;13.752;2023-05-07T14:12:22;5.47;;;5.00;;
815;SDS011;25928;51.062;13.752;2023-05-07T14:14:48;4.80;;;4.43;;
815;SDS011;25928;51.062;13.752;2023-05-07T14:17:16;4.73;;;4.33;;
815;SDS011;25928;51.062;13.752;2023-05-07T14:19:42;4.80;;;4.33;;
815;SDS011;25928;51.062;13.752;2023-05-07T14:22:08;5.37;;;4.50;;
815;SDS011;25928;51.062;13.752;2023-05-07T14:24:34;4.70;;;4.30;;
815;SDS011;25928;51.062;13.752;2023-05-07T14:27:01;4.53;;;4.13;;
815;SDS011;25928;51.062;13.752;2023-05-07T14:29:27;4.07;;;3.70;;
815;SDS011;25928;51.062;13.752;2023-05-07T14:31:52;4.93;;;3.93;;
815;SDS011;25928;51.062;13.752;2023-05-07T14:34:18;4.40;;;4.00;;
815;SDS011;25928;51.062;13.752;2023-05-07T14:36:44;3.57;;;3.27;;
815;SDS011;25928;51.062;13.752;2023-05-07T14:39:09;4.13;;;3.70;;
815;SDS011;25928;51.062;13.752;2023-05-07T14:41:35;4.80;;;3.50;;
815;SDS011;25928;51.062;13.752;2023-05-07T14:44:01;7.83;;;4.80;;
815;SDS011;25928;51.062;13.752;2023-05-07T14:46:29;4.23;;;3.90;;
815;SDS011;25928;51.062;13.752;2023-05-07T14:48:55;5.07;;;4.67;;
815;SDS011;25928;51.062;13.752;2023-05-07T14:51:21;5.10;;;4.70;;
815;SDS011;25928;51.062;13.752;2023-05-07T14:53:48;5.37;;;4.90;;
815;SDS011;25928;51.062;13.752;2023-05-07T14:56:15;5.40;;;4.90;;